Ansongo Airport


Codes: GAAO/
Name: Ansongo Airport
City: Ansongo
Country: Mali
Elevation: 853 ft.

Photos at Ansongo Airport


   Photos courtesy of SpottingLog. You can add your own sightings and photos by signing up for a free trial today.



No photos found.

Weather at Ansongo Airport


Time (UTC)DescriptionTempratureWindCloud coverageVisibilityPressureHumidity
16-Jun-2024 09:00Broken Clouds34°C11 mph, SW69%10000m1010hPa38%
16-Jun-2024 12:00Broken Clouds35°C9 mph, SW63%10000m1010hPa35%
16-Jun-2024 15:00Overcast Clouds37°C2 mph, S86%10000m1008hPa30%
16-Jun-2024 18:00Broken Clouds38°C4 mph, SW51%10000m1006hPa25%
16-Jun-2024 21:00Light Rain34°C9 mph, N22%10000m1009hPa37%
17-Jun-2024 00:00Scattered Clouds33°C4 mph, NW33%10000m1010hPa38%
17-Jun-2024 03:00Few Clouds33°C7 mph, S16%10000m1009hPa40%
17-Jun-2024 06:00Scattered Clouds32°C13 mph, SW44%10000m1009hPa44%
17-Jun-2024 09:00Broken Clouds35°C16 mph, SW78%10000m1010hPa36%
17-Jun-2024 12:00Scattered Clouds38°C9 mph, SW43%10000m1009hPa29%
17-Jun-2024 15:00Few Clouds39°C0 mph, SW11%10000m1007hPa24%
17-Jun-2024 18:00Clear Sky34°C27 mph, NE6%10000m1008hPa36%
17-Jun-2024 21:00Overcast Clouds36°C9 mph, NW93%10000m1008hPa20%
18-Jun-2024 00:00Overcast Clouds35°C11 mph, SE94%10000m1007hPa25%
18-Jun-2024 03:00Broken Clouds34°C11 mph, SW64%10000m1008hPa34%
18-Jun-2024 06:00Light Rain32°C11 mph, S46%10000m1012hPa46%
18-Jun-2024 09:00Light Rain33°C27 mph, S45%10000m1013hPa45%
18-Jun-2024 12:00Broken Clouds34°C20 mph, SW73%10000m1013hPa44%
18-Jun-2024 15:00Overcast Clouds36°C18 mph, W100%10000m1010hPa36%
18-Jun-2024 18:00Overcast Clouds36°C11 mph, W100%10000m1008hPa36%
18-Jun-2024 21:00Broken Clouds34°C9 mph, SW69%10000m1008hPa39%
19-Jun-2024 00:00Broken Clouds34°C9 mph, SW78%10000m1008hPa42%
19-Jun-2024 03:00Broken Clouds32°C11 mph, SW73%10000m1007hPa44%
19-Jun-2024 06:00Broken Clouds32°C11 mph, SW51%10000m1008hPa43%
19-Jun-2024 09:00Clear Sky36°C13 mph, SW10%10000m1009hPa29%
19-Jun-2024 12:00Clear Sky40°C11 mph, W7%10000m1008hPa23%
19-Jun-2024 15:00Clear Sky42°C4 mph, NW9%10000m1005hPa20%
19-Jun-2024 18:00Few Clouds28°C45 mph, NE23%10000m1007hPa55%
19-Jun-2024 21:00Light Rain37°C18 mph, NE100%10000m1007hPa20%
20-Jun-2024 00:00Overcast Clouds37°C2 mph, NW100%10000m1006hPa22%
20-Jun-2024 03:00Overcast Clouds34°C9 mph, W89%10000m1005hPa27%
20-Jun-2024 06:00Overcast Clouds33°C9 mph, SW94%10000m1006hPa31%
20-Jun-2024 09:00Clear Sky37°C13 mph, SW4%10000m1008hPa25%
20-Jun-2024 12:00Clear Sky41°C16 mph, SW2%10000m1006hPa22%
20-Jun-2024 15:00Clear Sky43°C11 mph, SW9%10000m1004hPa18%
20-Jun-2024 18:00Few Clouds42°C11 mph, SW15%10000m1003hPa19%
20-Jun-2024 21:00Broken Clouds39°C9 mph, NW82%10000m1006hPa25%
21-Jun-2024 00:00Overcast Clouds37°C11 mph, SW91%10000m1006hPa27%
21-Jun-2024 03:00Broken Clouds35°C18 mph, SW61%10000m1006hPa32%
21-Jun-2024 06:00Scattered Clouds31°C20 mph, S31%10000m1008hPa51%